Boynton Beach, Florida
Current Conditions -  °F | °C
As of 4:49 PM on Thursday 23 Oct 2014 (Local Time) from KBCT Reporting Station
Overcast Overcast  
Wind Chill: 77°   Ceiling: 3100
Heat Index: 79°   Visibility: 10mi
Dew Point: 66°   Wind: 18mph
Humidity: 69%   Direction: 70°ENE
Pressure: 29.9"   Gusts: NA
Location:  26.53°N, 80.06°W
Report Text: KBCT 232049Z 07016KT 10SM OVC031 25/19 A2990
Loading
Personal Weather Stations






























Interactive Weather Map New forecast layout! Learn more

10-Day Weather Forecast

Advertisements
Track Severe Weather on mobile